Time;durP1;ratioP1;P1;durP2;ratioP2;P2;SDS_P1;SDS_P2;PMS_P1;PMS_P2;Temp;Humidity;BMP_temperature;BMP_pressure;BME280_temperature;BME280_humidity;BME280_pressure;Samples;Min_cycle;Max_cycle;Signal;HPM_P1;HPM_P2
2022/06/24 00:01:42;;;;;;;28.60;22.38;;;;;;;25.55;41.30;100130.66;5075328;28;20451;-87
2022/06/24 00:04:08;;;;;;;25.00;21.35;;;;;;;25.51;41.48;100121.53;5075566;28;20115;-87
2022/06/24 00:06:46;;;;;;;25.83;19.83;;;;;;;25.49;41.41;100112.78;5074832;28;20028;-87
2022/06/24 00:09:15;;;;;;;34.92;20.73;;;;;;;25.46;41.53;100126.38;5075119;28;20095;-86
2022/06/24 00:11:41;;;;;;;27.00;22.42;;;;;;;25.42;41.47;100122.09;5076153;28;20463;-87
2022/06/24 00:14:10;;;;;;;28.20;20.05;;;;;;;25.38;41.73;100122.16;5076155;28;20025;-87
2022/06/24 00:16:56;;;;;;;22.52;18.50;;;;;;;25.33;41.48;100116.28;5074812;28;20062;-87
2022/06/24 00:19:26;;;;;;;21.67;18.15;;;;;;;25.31;41.39;100113.13;5074553;28;20040;-87
2022/06/24 00:22:09;;;;;;;23.35;18.77;;;;;;;25.29;40.99;100104.38;5074768;28;20023;-87
2022/06/24 00:24:37;;;;;;;22.30;16.92;;;;;;;25.24;40.95;100107.66;5074862;28;20101;-86
2022/06/24 00:27:15;;;;;;;19.27;16.55;;;;;;;25.22;40.82;100102.50;5074551;28;20070;-86
2022/06/24 00:29:40;;;;;;;22.70;18.42;;;;;;;25.22;40.37;100108.09;5074645;28;20074;-84
2022/06/24 00:32:08;;;;;;;26.65;20.77;;;;;;;25.14;40.92;100098.25;5074564;28;20024;-86
2022/06/24 00:34:36;;;;;;;20.40;15.98;;;;;;;25.08;40.42;100099.97;5075753;28;20024;-86
2022/06/24 00:37:28;;;;;;;21.77;18.45;;;;;;;24.94;40.78;100094.59;5074329;28;20463;-85
2022/06/24 00:39:56;;;;;;;21.05;18.13;;;;;;;24.94;40.48;100087.03;5074607;28;20142;-85
2022/06/24 00:42:23;;;;;;;25.23;19.98;;;;;;;24.94;40.79;100092.63;5074474;28;20063;-85
2022/06/24 00:44:58;;;;;;;23.38;18.55;;;;;;;24.95;40.92;100090.63;5074471;28;20390;-85
2022/06/24 00:47:25;;;;;;;24.73;20.63;;;;;;;24.96;40.75;100089.41;5074057;28;20114;-86
2022/06/24 00:49:53;;;;;;;22.65;18.40;;;;;;;24.87;41.20;100093.53;5074286;28;20028;-86
2022/06/24 00:52:19;;;;;;;22.70;15.93;;;;;;;24.87;41.01;100087.94;5074122;28;20035;-85
2022/06/24 00:54:45;;;;;;;16.90;13.45;;;;;;;24.70;40.93;100091.03;5075341;28;20028;-85
2022/06/24 00:57:11;;;;;;;21.55;15.88;;;;;;;24.58;41.14;100084.84;5074369;28;20037;-86
2022/06/24 00:59:39;;;;;;;22.52;18.98;;;;;;;24.61;41.01;100088.78;5074153;28;20556;-86
2022/06/24 01:02:06;;;;;;;25.60;18.75;;;;;;;24.54;41.30;100088.91;5074059;28;20036;-85
2022/06/24 01:04:33;;;;;;;24.27;19.42;;;;;;;24.71;40.88;100087.84;5073822;28;20483;-85
2022/06/24 01:06:58;;;;;;;24.30;19.67;;;;;;;24.73;40.81;100085.41;5073872;28;20478;-85
2022/06/24 01:09:24;;;;;;;22.52;19.00;;;;;;;24.79;40.84;100091.28;5073945;28;20039;-85
2022/06/24 01:11:50;;;;;;;25.85;18.83;;;;;;;24.70;41.07;100094.59;5075040;28;20031;-86
2022/06/24 01:14:15;;;;;;;22.10;18.25;;;;;;;24.60;41.30;100098.38;5073713;28;20463;-86
2022/06/24 01:16:41;;;;;;;23.52;20.83;;;;;;;24.58;41.03;100090.44;5073763;28;20039;-85
2022/06/24 01:19:12;;;;;;;25.38;18.75;;;;;;;24.65;40.81;100091.53;5073760;28;20036;-85
2022/06/24 01:21:41;;;;;;;30.52;20.33;;;;;;;24.69;40.79;100100.63;5073688;28;20032;-86
2022/06/24 01:24:21;;;;;;;24.25;19.77;;;;;;;24.66;40.93;100096.69;5073660;28;20382;-85
2022/06/24 01:26:49;;;;;;;;;;;;;;;24.66;40.91;100084.72;5075208;28;20059;-85
2022/06/24 01:29:15;;;;;;;24.77;17.42;;;;;;;24.68;40.69;100096.25;5073574;28;20275;-85
2022/06/24 01:31:48;;;;;;;23.95;18.25;;;;;;;24.67;40.77;100081.50;5073354;28;20122;-85
2022/06/24 01:34:14;;;;;;;26.80;19.65;;;;;;;24.66;40.63;100079.94;5073289;28;20031;-85
2022/06/24 01:36:40;;;;;;;25.27;20.52;;;;;;;24.61;40.79;100081.19;5073268;28;20123;-85
2022/06/24 01:39:07;;;;;;;21.80;17.88;;;;;;;24.64;40.79;100082.38;5073269;28;20071;-85
2022/06/24 01:41:33;;;;;;;20.80;18.55;;;;;;;24.63;40.72;100075.19;5073237;28;20484;-84
2022/06/24 01:43:59;;;;;;;20.27;17.67;;;;;;;24.63;40.68;100077.97;5072924;28;20024;-85
2022/06/24 01:46:26;;;;;;;19.58;16.52;;;;;;;24.57;40.95;100062.94;5072742;28;20067;-85
2022/06/24 01:48:51;;;;;;;22.13;17.60;;;;;;;24.58;41.00;100059.72;5072573;28;20024;-85
2022/06/24 01:51:19;;;;;;;20.40;17.23;;;;;;;24.54;40.90;100050.59;5072564;28;20165;-85
2022/06/24 01:53:45;;;;;;;19.67;16.55;;;;;;;24.51;40.91;100048.66;5072964;28;20033;-85
2022/06/24 01:56:11;;;;;;;19.35;17.23;;;;;;;24.48;40.98;100043.91;5072978;28;20035;-87
2022/06/24 01:58:36;;;;;;;21.75;18.05;;;;;;;24.51;40.90;100045.06;5072591;28;20028;-84
2022/06/24 02:01:03;;;;;;;17.40;14.88;;;;;;;24.54;40.61;100055.38;5072725;28;20029;-85
2022/06/24 02:03:31;;;;;;;22.30;15.70;;;;;;;24.50;40.88;100046.28;5072694;28;20078;-85
2022/06/24 02:06:02;;;;;;;17.88;14.80;;;;;;;24.49;40.84;100045.50;5072622;28;20047;-85
2022/06/24 02:08:28;;;;;;;17.58;13.57;;;;;;;24.49;41.05;100033.56;5072669;28;20025;-86
2022/06/24 02:13:37;;;;;;;14.30;10.98;;;;;;;24.38;41.24;100038.50;5073954;28;20071;-87
2022/06/24 02:16:04;;;;;;;14.48;10.30;;;;;;;24.39;41.19;100034.50;5072194;28;20502;-84
2022/06/24 02:18:31;;;;;;;12.32;8.95;;;;;;;24.36;41.42;100027.78;5072518;28;20023;-85
2022/06/24 02:20:58;;;;;;;11.55;8.50;;;;;;;24.35;41.24;100015.81;5072395;28;20028;-85
2022/06/24 02:23:25;;;;;;;10.27;8.90;;;;;;;24.35;41.18;100017.81;5072330;28;20024;-85
2022/06/24 02:25:52;;;;;;;11.88;8.52;;;;;;;24.32;41.62;100016.66;5072169;28;20025;-84
2022/06/24 02:28:17;;;;;;;12.02;9.85;;;;;;;24.30;41.47;100013.47;5071927;28;20421;-85
2022/06/24 02:30:45;;;;;;;11.18;9.60;;;;;;;24.27;41.52;100011.53;5072230;28;20024;-85
2022/06/24 02:33:11;;;;;;;11.85;8.38;;;;;;;24.17;41.45;100011.69;5072124;28;20517;-85
2022/06/24 02:35:38;;;;;;;13.23;8.35;;;;;;;24.09;41.62;100011.00;5072039;28;20482;-86
2022/06/24 02:38:04;;;;;;;10.98;8.35;;;;;;;24.08;41.77;100010.22;5072289;28;20032;-85
2022/06/24 02:40:45;;;;;;;14.60;6.90;;;;;;;24.06;41.78;100006.28;5072201;28;20124;-86
2022/06/24 02:43:26;;;;;;;10.55;7.32;;;;;;;24.07;41.58;100008.66;5072245;28;20029;-86
2022/06/24 02:46:03;;;;;;;9.43;6.82;;;;;;;24.07;41.70;100010.66;5072208;28;20066;-87
2022/06/24 02:48:31;;;;;;;13.98;6.43;;;;;;;24.16;41.96;100018.50;5072297;28;20048;-86
2022/06/24 02:51:02;;;;;;;11.77;6.53;;;;;;;24.25;41.88;100015.94;5072156;28;20056;-85
2022/06/24 02:53:29;;;;;;;10.95;5.38;;;;;;;24.37;41.96;100014.59;5072098;28;20025;-86
2022/06/24 02:55:58;;;;;;;7.97;6.20;;;;;;;24.43;41.88;100010.13;5073484;28;20397;-86
2022/06/24 02:58:24;;;;;;;11.30;5.57;;;;;;;24.49;41.67;100014.78;5072040;28;20033;-87
2022/06/24 03:00:49;;;;;;;11.13;5.50;;;;;;;24.53;41.83;100015.50;5071200;28;20035;-86
2022/06/24 03:03:17;;;;;;;10.60;4.97;;;;;;;24.57;41.57;100019.03;5072040;28;20111;-86
2022/06/24 03:05:43;;;;;;;11.45;4.63;;;;;;;24.58;41.58;100009.44;5072075;28;20032;-85
2022/06/24 03:08:11;;;;;;;9.88;4.75;;;;;;;24.63;41.74;100010.94;5071961;28;20398;-86
2022/06/24 03:10:37;;;;;;;9.13;4.82;;;;;;;24.62;41.68;100010.16;5071951;28;20064;-85
2022/06/24 03:13:03;;;;;;;12.32;4.50;;;;;;;24.67;41.58;100016.47;5071784;28;20033;-86
2022/06/24 03:15:29;;;;;;;6.50;3.83;;;;;;;24.73;41.75;100009.97;5071963;28;20533;-86
2022/06/24 03:17:55;;;;;;;7.85;4.40;;;;;;;24.75;41.61;100013.13;5071956;28;20039;-86
2022/06/24 03:20:21;;;;;;;5.75;4.22;;;;;;;24.80;41.67;100007.03;5071757;28;20475;-86
2022/06/24 03:22:47;;;;;;;9.93;4.38;;;;;;;24.74;41.99;100017.13;5071834;28;20477;-85
2022/06/24 03:25:12;;;;;;;12.48;4.53;;;;;;;24.70;42.01;100005.22;5071892;28;20033;-86
2022/06/24 03:27:38;;;;;;;7.18;4.00;;;;;;;24.70;42.41;100005.22;5072050;28;20107;-86
2022/06/24 03:30:09;;;;;;;12.07;3.72;;;;;;;24.71;42.65;100001.25;5071876;28;20025;-87
2022/06/24 03:32:39;;;;;;;7.57;3.65;;;;;;;24.69;42.64;100002.88;5071870;28;20032;-86
2022/06/24 03:35:05;;;;;;;7.95;4.45;;;;;;;24.70;42.38;100002.44;5071798;28;20063;-86
2022/06/24 03:37:31;;;;;;;10.90;5.30;;;;;;;24.75;42.35;100010.31;5071860;28;20111;-87
2022/06/24 03:39:58;;;;;;;6.35;4.57;;;;;;;24.71;42.76;100001.25;5071800;28;20067;-86
2022/06/24 03:42:24;;;;;;;11.10;4.20;;;;;;;24.72;42.71;99999.22;5071706;28;20028;-85
2022/06/24 03:44:50;;;;;;;5.03;3.58;;;;;;;24.73;43.07;99998.00;5071821;28;20028;-86
2022/06/24 03:47:15;;;;;;;6.65;3.85;;;;;;;24.82;42.89;99990.63;5071336;28;20080;-86
2022/06/24 03:49:41;;;;;;;10.38;4.05;;;;;;;24.81;43.02;99996.66;5071851;28;20386;-86
2022/06/24 03:52:07;;;;;;;6.20;4.00;;;;;;;24.95;42.57;99998.41;5071665;28;20031;-86
2022/06/24 03:54:34;;;;;;;6.90;3.45;;;;;;;24.98;42.86;99991.94;5071721;28;20036;-86
2022/06/24 03:56:59;;;;;;;13.48;4.97;;;;;;;25.04;42.65;99990.25;5071533;28;20028;-86
2022/06/24 03:59:25;;;;;;;6.95;3.53;;;;;;;25.06;42.20;99993.41;5071984;28;20050;-86
2022/06/24 04:01:54;;;;;;;7.45;3.67;;;;;;;24.97;42.74;99985.56;5071653;28;20029;-85
2022/06/24 04:04:20;;;;;;;9.30;4.28;;;;;;;24.96;42.90;99977.63;5071649;28;20597;-86
2022/06/24 04:06:46;;;;;;;4.85;3.33;;;;;;;24.95;42.86;99981.63;5069536;28;20107;-87
2022/06/24 04:09:12;;;;;;;7.75;4.00;;;;;;;24.88;42.85;99971.38;5071385;28;20489;-87
2022/06/24 04:11:37;;;;;;;7.45;3.55;;;;;;;24.91;43.28;99974.09;5072027;28;20028;-86
2022/06/24 04:14:03;;;;;;;4.53;3.83;;;;;;;24.97;43.19;99982.78;5075049;28;20024;-87
2022/06/24 04:16:29;;;;;;;8.18;4.18;;;;;;;24.92;43.43;99977.66;5074839;28;20029;-86
2022/06/24 04:18:55;;;;;;;6.85;3.92;;;;;;;25.01;43.12;99975.09;5074866;28;20063;-85
2022/06/24 04:21:21;;;;;;;11.95;5.07;;;;;;;25.01;43.32;99963.91;5074873;28;20024;-86
2022/06/24 04:23:50;;;;;;;9.82;5.30;;;;;;;24.99;43.29;99968.34;5075015;28;20067;-85
2022/06/24 04:26:17;;;;;;;13.43;4.47;;;;;;;24.94;43.48;99966.88;5074940;28;20127;-86
2022/06/24 04:28:43;;;;;;;5.03;3.75;;;;;;;25.00;43.10;99958.75;5075051;28;20119;-85
2022/06/24 04:31:09;;;;;;;5.35;4.20;;;;;;;25.09;43.04;99970.16;5074967;28;20529;-87
2022/06/24 04:33:34;;;;;;;7.50;4.20;;;;;;;25.16;43.13;99958.84;5074856;28;20028;-86
2022/06/24 04:36:00;;;;;;;7.18;4.35;;;;;;;25.23;43.09;99955.13;5074515;28;20179;-87
2022/06/24 04:38:26;;;;;;;8.32;4.35;;;;;;;25.43;42.11;99948.28;5074831;28;20074;-87
2022/06/24 04:40:52;;;;;;;7.25;4.55;;;;;;;25.53;41.94;99948.47;5074560;28;20032;-85
2022/06/24 04:43:17;;;;;;;8.27;4.90;;;;;;;25.42;42.08;99937.53;5074564;28;20037;-86
2022/06/24 04:45:44;;;;;;;9.27;5.10;;;;;;;25.42;42.10;99941.13;5074506;28;20394;-86
2022/06/24 04:48:10;;;;;;;7.75;5.15;;;;;;;25.29;42.23;99948.59;5074229;28;20044;-85
2022/06/24 04:50:36;;;;;;;12.63;5.55;;;;;;;25.19;42.66;99944.03;5074327;28;20060;-85
2022/06/24 04:53:03;;;;;;;8.57;5.43;;;;;;;25.27;42.63;99942.66;5074627;28;20048;-85
2022/06/24 04:55:29;;;;;;;13.55;5.95;;;;;;;25.29;42.50;99936.63;5074291;28;20063;-86
2022/06/24 04:57:54;;;;;;;8.35;6.22;;;;;;;25.27;42.37;99936.28;5074529;28;20437;-87
2022/06/24 05:00:20;;;;;;;8.07;6.65;;;;;;;25.37;42.40;99932.44;5074366;28;20127;-86
2022/06/24 05:02:46;;;;;;;9.30;6.97;;;;;;;25.71;41.61;99937.66;5074200;28;20032;-86
2022/06/24 05:05:12;;;;;;;9.23;6.55;;;;;;;25.68;41.87;99938.53;5074079;28;20443;-86
2022/06/24 05:07:39;;;;;;;10.32;7.40;;;;;;;25.55;42.22;99930.03;5074079;28;20101;-86
2022/06/24 05:10:06;;;;;;;13.68;6.90;;;;;;;25.62;42.29;99934.69;5074120;28;20039;-86
2022/06/24 05:12:32;;;;;;;10.05;7.65;;;;;;;25.64;42.29;99930.22;5073949;28;20028;-85
2022/06/24 05:14:58;;;;;;;11.43;7.15;;;;;;;25.75;42.25;99932.78;5073846;28;20027;-86
2022/06/24 05:17:24;;;;;;;12.30;7.43;;;;;;;25.67;42.52;99928.56;5074080;28;20047;-86
2022/06/24 05:19:51;;;;;;;9.63;6.72;;;;;;;25.79;42.66;99915.94;5073769;28;20066;-86
2022/06/24 05:22:16;;;;;;;9.75;6.88;;;;;;;25.86;42.22;99922.16;5073826;28;20024;-86
2022/06/24 05:24:42;;;;;;;7.95;6.55;;;;;;;25.95;42.39;99922.31;5072710;28;20035;-86
2022/06/24 05:27:08;;;;;;;7.05;5.57;;;;;;;25.96;42.33;99926.69;5073675;28;20115;-86
2022/06/24 05:29:33;;;;;;;8.30;6.35;;;;;;;25.78;43.05;99915.16;5073960;28;20178;-87
2022/06/24 05:31:59;;;;;;;8.82;6.10;;;;;;;25.77;42.76;99919.19;5073723;28;20063;-87
2022/06/24 05:34:25;;;;;;;7.50;5.85;;;;;;;25.80;43.10;99918.28;5073486;28;20031;-86
2022/06/24 05:36:51;;;;;;;7.10;5.88;;;;;;;25.79;42.79;99911.13;5073482;28;20036;-86
2022/06/24 05:39:16;;;;;;;9.93;5.88;;;;;;;26.05;42.31;99916.88;5073600;28;20025;-87
2022/06/24 05:41:43;;;;;;;8.88;6.22;;;;;;;26.05;42.09;99912.06;5073581;28;20035;-86
2022/06/24 05:44:09;;;;;;;8.70;6.15;;;;;;;26.11;41.96;99915.91;5074642;28;20020;-87
2022/06/24 05:46:35;;;;;;;7.70;6.18;;;;;;;26.08;42.10;99913.22;5073224;28;20035;-86
2022/06/24 05:49:01;;;;;;;6.85;5.65;;;;;;;26.23;41.88;99906.03;5073201;28;20415;-86
2022/06/24 05:51:28;;;;;;;7.40;6.05;;;;;;;26.33;41.38;99902.16;5073496;28;20040;-86
2022/06/24 05:56:38;;;;;;;7.78;5.47;;;;;;;26.28;41.67;99902.69;5074743;28;20035;-86
2022/06/24 05:59:04;;;;;;;7.72;5.97;;;;;;;26.03;42.32;99913.75;5073320;28;20024;-86
2022/06/24 06:01:30;;;;;;;7.22;6.50;;;;;;;26.23;41.67;99909.63;5073207;28;20016;-87
2022/06/24 06:03:56;;;;;;;6.53;5.65;;;;;;;26.39;41.94;99905.25;5074208;28;20025;-86
2022/06/24 06:06:23;;;;;;;7.45;5.30;;;;;;;26.55;41.82;99908.00;5073929;28;20021;-87
2022/06/24 06:08:48;;;;;;;7.90;4.55;;;;;;;26.63;41.59;99895.34;5074172;28;20033;-86
2022/06/24 06:11:19;;;;;;;9.00;4.90;;;;;;;26.81;41.25;99901.22;5074013;28;20552;-87
2022/06/24 06:13:47;;;;;;;9.15;4.38;;;;;;;26.83;41.38;99896.00;5073290;28;20052;-87
2022/06/24 06:16:13;;;;;;;7.28;4.18;;;;;;;26.89;41.04;99890.59;5072810;28;20033;-86
2022/06/24 06:18:39;;;;;;;2.65;2.13;;;;;;;27.02;39.79;99901.84;5073029;28;20081;-85
2022/06/24 06:21:07;;;;;;;2.00;1.23;;;;;;;26.64;40.02;99899.72;5072824;28;20067;-88
2022/06/24 06:23:34;;;;;;;2.22;1.15;;;;;;;26.76;39.36;99903.81;5072779;28;20025;-86
2022/06/24 06:26:01;;;;;;;1.73;0.90;;;;;;;26.73;38.80;99907.50;5072543;28;20064;-85
2022/06/24 06:28:27;;;;;;;1.02;0.77;;;;;;;26.41;38.66;99906.34;5072170;28;20501;-83
2022/06/24 06:30:53;;;;;;;2.78;0.88;;;;;;;26.42;38.71;99901.53;5072295;28;20066;-84
2022/06/24 06:33:19;;;;;;;3.50;0.90;;;;;;;26.36;38.65;99901.25;5072268;28;20418;-84
2022/06/24 06:35:45;;;;;;;1.77;1.10;;;;;;;26.28;38.69;99897.84;5072176;28;20508;-86
2022/06/24 06:38:11;;;;;;;0.93;0.70;;;;;;;26.59;37.64;99899.47;5072398;28;20482;-87
2022/06/24 06:40:38;;;;;;;4.13;1.65;;;;;;;26.39;38.19;99897.63;5072311;28;20035;-86
2022/06/24 06:43:07;;;;;;;8.77;1.30;;;;;;;26.37;37.91;99897.22;5072237;28;20032;-85
2022/06/24 06:45:33;;;;;;;0.55;0.52;;;;;;;26.31;38.01;99906.63;5072213;28;20028;-86
2022/06/24 06:47:59;;;;;;;2.97;1.02;;;;;;;26.29;38.36;99904.25;5073424;28;20044;-87
2022/06/24 06:50:26;;;;;;;1.58;0.90;;;;;;;26.23;38.27;99912.41;5072219;28;20028;-87
2022/06/24 06:52:51;;;;;;;3.50;1.38;;;;;;;26.19;38.28;99902.53;5072255;28;20111;-86
2022/06/24 06:55:17;;;;;;;1.58;0.80;;;;;;;26.18;37.94;99898.94;5071927;28;20059;-87
2022/06/24 06:57:42;;;;;;;1.25;0.85;;;;;;;26.23;37.88;99897.63;5072232;28;20124;-87
2022/06/24 07:00:09;;;;;;;5.20;1.00;;;;;;;26.05;38.66;99894.50;5072291;28;20029;-87
2022/06/24 07:02:39;;;;;;;1.50;0.85;;;;;;;26.09;37.92;99892.41;5072056;28;20032;-86
2022/06/24 07:05:05;;;;;;;2.28;0.75;;;;;;;26.11;38.02;99892.72;5072105;28;20048;-86
2022/06/24 07:07:31;;;;;;;6.30;1.73;;;;;;;25.96;38.12;99890.31;5072303;28;20431;-86
2022/06/24 07:09:57;;;;;;;1.38;0.70;;;;;;;25.89;38.37;99890.47;5072117;28;20055;-85
2022/06/24 07:12:24;;;;;;;3.35;1.05;;;;;;;26.33;37.78;99882.53;5071567;28;20426;-85
2022/06/24 07:14:50;;;;;;;1.48;0.60;;;;;;;26.43;37.65;99887.09;5072014;28;20479;-85
2022/06/24 07:17:17;;;;;;;2.55;1.17;;;;;;;26.63;37.30;99880.56;5071698;28;20037;-86
2022/06/24 07:19:43;;;;;;;5.97;1.20;;;;;;;26.74;36.82;99883.84;5073182;28;20107;-86
2022/06/24 07:22:09;;;;;;;5.90;1.17;;;;;;;26.75;36.78;99882.59;5071836;28;20028;-85
2022/06/24 07:24:35;;;;;;;2.65;0.70;;;;;;;26.56;36.82;99875.94;5071858;28;20126;-87
2022/06/24 07:27:05;;;;;;;2.42;0.90;;;;;;;26.77;36.62;99886.56;5071774;28;20414;-86
2022/06/24 07:29:34;;;;;;;2.30;0.88;;;;;;;26.72;36.77;99880.69;5072960;28;20035;-86
2022/06/24 07:32:01;;;;;;;2.63;0.60;;;;;;;26.86;36.34;99885.13;5073050;28;20056;-86
2022/06/24 07:34:27;;;;;;;2.08;1.00;;;;;;;26.84;36.23;99874.34;5071636;28;20029;-86
2022/06/24 07:36:56;;;;;;;2.47;0.75;;;;;;;26.65;36.86;99875.28;5071683;28;20033;-85
2022/06/24 07:39:22;;;;;;;2.92;1.42;;;;;;;26.60;36.65;99873.03;5071793;28;20033;-85
2022/06/24 07:41:47;;;;;;;7.03;1.23;;;;;;;26.60;36.17;99871.03;5071925;28;20037;-87
2022/06/24 07:44:13;;;;;;;3.83;0.60;;;;;;;26.85;36.16;99870.31;5071819;28;20035;-85
2022/06/24 07:46:38;;;;;;;0.50;0.50;;;;;;;26.90;36.02;99860.56;5072509;28;20424;-85
2022/06/24 07:49:04;;;;;;;2.70;0.70;;;;;;;27.01;35.71;99867.44;5075696;28;20069;-87
2022/06/24 07:51:29;;;;;;;1.00;0.60;;;;;;;27.03;36.00;99858.56;5075417;28;20115;-87
2022/06/24 07:53:55;;;;;;;1.20;0.90;;;;;;;27.10;36.06;99856.34;5075854;28;20025;-86
2022/06/24 07:59:05;;;;;;;3.90;0.93;;;;;;;27.26;36.02;99849.06;5077041;28;20040;-87
2022/06/24 08:01:33;;;;;;;0.98;0.77;;;;;;;27.47;35.46;99851.19;5075562;28;20024;-85
2022/06/24 08:03:58;;;;;;;1.27;0.70;;;;;;;27.53;35.35;99840.22;5076754;28;20025;-87
2022/06/24 08:06:25;;;;;;;0.57;0.50;;;;;;;27.54;35.31;99839.75;5075337;28;20035;-86
2022/06/24 08:08:50;;;;;;;1.17;0.70;;;;;;;27.62;35.22;99832.66;5076834;28;20078;-84
2022/06/24 08:11:16;;;;;;;3.65;0.73;;;;;;;27.72;35.12;99832.78;5075391;28;20025;-86
2022/06/24 08:13:41;;;;;;;2.25;0.63;;;;;;;27.78;35.01;99828.97;5076408;28;20047;-84
2022/06/24 08:16:08;;;;;;;10.63;1.85;;;;;;;28.08;34.37;99823.94;5076246;28;20048;-86
2022/06/24 08:18:33;;;;;;;4.45;1.50;;;;;;;28.05;35.06;99822.03;5074694;28;20024;-84
2022/06/24 08:20:59;;;;;;;2.53;0.82;;;;;;;28.05;34.68;99808.78;5074904;28;20031;-86
2022/06/24 08:23:24;;;;;;;1.25;0.70;;;;;;;28.04;34.82;99815.66;5073258;28;20494;-84
2022/06/24 08:25:50;;;;;;;0.47;0.47;;;;;;;28.24;34.50;99804.09;5073074;28;20100;-85
2022/06/24 08:28:16;;;;;;;1.65;0.73;;;;;;;28.25;34.47;99807.69;5074061;28;20572;-83
2022/06/24 08:30:41;;;;;;;0.90;0.60;;;;;;;28.46;34.19;99810.53;5073898;28;20111;-83
2022/06/24 08:33:07;;;;;;;1.58;0.70;;;;;;;28.65;33.93;99805.03;5066713;28;20021;-82
2022/06/24 08:35:33;;;;;;;5.40;0.88;;;;;;;28.89;33.88;99805.31;5058994;28;20173;-85
2022/06/24 08:37:59;;;;;;;1.98;0.60;;;;;;;29.00;34.37;99802.88;5058193;28;20379;-83
2022/06/24 08:40:27;;;;;;;5.68;1.00;;;;;;;29.10;33.91;99807.31;5060386;28;20017;-84
2022/06/24 08:42:54;;;;;;;3.05;0.80;;;;;;;29.23;34.05;99801.56;5059880;28;20123;-83
2022/06/24 08:45:20;;;;;;;3.22;0.85;;;;;;;28.83;33.27;99790.28;5058019;28;20032;-83
2022/06/24 08:47:47;;;;;;;1.92;0.85;;;;;;;29.15;33.20;99795.44;5058261;28;20036;-87
2022/06/24 08:50:13;;;;;;;1.50;0.60;;;;;;;29.65;32.75;99795.47;5065386;28;20028;-83
2022/06/24 08:52:50;;;;;;;1.48;0.77;;;;;;;29.55;32.25;99789.06;5074352;28;20024;-86
2022/06/24 08:55:18;;;;;;;2.50;0.70;;;;;;;29.63;32.38;99790.31;5074394;28;20664;-83
2022/06/24 08:57:45;;;;;;;2.55;0.70;;;;;;;29.43;32.63;99789.91;5073779;28;20025;-85
2022/06/24 09:00:12;;;;;;;4.80;1.13;;;;;;;29.46;33.00;99780.53;5071626;28;20028;-84
2022/06/24 09:02:38;;;;;;;2.40;0.80;;;;;;;29.58;33.31;99779.66;5059477;28;20020;-83
2022/06/24 09:05:11;;;;;;;6.88;0.93;;;;;;;29.61;33.30;99767.47;5059724;28;20025;-84
2022/06/24 09:07:37;;;;;;;1.17;0.40;;;;;;;29.60;33.38;99773.56;5060342;28;20020;-84
2022/06/24 09:10:12;;;;;;;4.55;1.10;;;;;;;30.02;33.09;99776.56;5060041;28;20027;-84
2022/06/24 09:12:40;;;;;;;2.60;0.88;;;;;;;29.83;32.79;99775.78;5058550;28;20127;-85
2022/06/24 09:15:08;;;;;;;3.22;0.47;;;;;;;29.68;33.04;99767.16;5060704;28;20032;-84
2022/06/24 09:17:35;;;;;;;4.70;0.93;;;;;;;29.86;32.83;99768.44;5058878;28;20028;-84
2022/06/24 09:20:08;;;;;;;6.90;0.90;;;;;;;29.61;32.47;99758.22;5058995;28;20032;-87
2022/06/24 09:22:34;;;;;;;2.22;0.50;;;;;;;30.00;32.24;99751.69;5059800;28;20968;-85
2022/06/24 09:25:01;;;;;;;3.65;0.75;;;;;;;30.04;32.07;99765.63;5059093;28;20059;-86
2022/06/24 09:27:27;;;;;;;3.08;1.08;;;;;;;29.79;32.57;99750.59;5069002;28;20024;-84
2022/06/24 09:29:52;;;;;;;2.00;0.60;;;;;;;30.22;31.95;99762.78;5074441;28;20032;-84
2022/06/24 09:32:18;;;;;;;4.00;0.90;;;;;;;30.15;32.22;99765.94;5073683;28;20017;-86
2022/06/24 09:35:04;;;;;;;1.73;0.50;;;;;;;30.15;32.17;99759.50;5073684;28;20051;-86
2022/06/24 09:37:44;;;;;;;3.42;0.73;;;;;;;29.97;32.17;99755.44;5073684;28;20057;-85
2022/06/24 09:40:28;;;;;;;5.70;1.00;;;;;;;29.82;32.51;99755.28;5073484;28;20053;-84
2022/06/24 09:43:00;;;;;;;3.03;1.17;;;;;;;29.94;32.20;99756.41;5073354;28;20027;-83
2022/06/24 09:45:43;;;;;;;3.50;0.80;;;;;;;29.60;33.09;99753.84;5073555;28;20027;-84
2022/06/24 09:48:08;;;;;;;4.38;0.90;;;;;;;29.32;33.83;99736.09;5073234;28;20045;-83
2022/06/24 09:50:35;;;;;;;3.90;1.52;;;;;;;29.32;34.09;99736.09;5073030;28;20063;-84
2022/06/24 09:53:02;;;;;;;5.20;1.00;;;;;;;29.61;33.83;99741.34;5074424;28;20069;-86
2022/06/24 09:55:29;;;;;;;1.73;0.80;;;;;;;29.89;33.52;99725.25;5074326;28;20470;-83
2022/06/24 09:57:59;;;;;;;3.92;0.70;;;;;;;29.91;33.58;99734.00;5073067;28;20414;-83
2022/06/24 10:00:43;;;;;;;5.97;1.27;;;;;;;29.92;33.27;99732.75;5072961;28;20094;-83
2022/06/24 10:03:11;;;;;;;5.13;1.13;;;;;;;30.05;33.08;99730.56;5073226;28;20021;-88
2022/06/24 10:05:41;;;;;;;20.95;1.92;;;;;;;29.99;32.95;99721.94;5074260;28;20024;-84
2022/06/24 10:08:10;;;;;;;7.22;0.80;;;;;;;30.19;33.01;99718.69;5072959;28;20035;-83
2022/06/24 10:10:38;;;;;;;2.72;0.95;;;;;;;30.27;32.92;99716.31;5073750;28;20025;-83
2022/06/24 10:13:09;;;;;;;5.40;1.00;;;;;;;30.14;32.63;99710.84;5074289;28;20396;-83
2022/06/24 10:15:35;;;;;;;3.92;1.02;;;;;;;30.59;31.93;99709.16;5072812;28;20024;-88
2022/06/24 10:18:07;;;;;;;3.08;0.80;;;;;;;30.64;31.19;99708.53;5073859;28;20506;-87
2022/06/24 10:20:35;;;;;;;4.22;1.50;;;;;;;30.57;31.66;99706.06;5072708;28;20112;-83
2022/06/24 10:23:00;;;;;;;2.50;0.60;;;;;;;30.76;31.22;99696.31;5074062;28;20090;-83
2022/06/24 10:25:47;;;;;;;1.40;0.50;;;;;;;30.67;30.60;99702.75;5074253;28;20505;-88
2022/06/24 10:28:13;;;;;;;3.45;1.30;;;;;;;30.60;30.85;99697.41;5073634;28;20382;-83
2022/06/24 10:30:39;;;;;;;3.97;0.98;;;;;;;30.18;31.00;99700.22;5073829;28;20020;-84
2022/06/24 10:33:14;;;;;;;14.38;1.98;;;;;;;30.32;31.33;99698.78;5072718;28;20178;-83
2022/06/24 10:35:58;;;;;;;1.73;0.80;;;;;;;30.49;30.71;99696.38;5068342;28;20029;-83
2022/06/24 10:38:26;;;;;;;3.88;1.02;;;;;;;30.63;30.53;99693.66;5054126;28;20070;-84
2022/06/24 10:40:52;;;;;;;3.58;1.42;;;;;;;30.47;30.43;99696.06;5052469;28;20023;-83
2022/06/24 10:43:44;;;;;;;6.35;1.38;;;;;;;30.64;29.96;99680.34;5052662;28;20033;-83
2022/06/24 10:46:12;;;;;;;8.23;1.27;;;;;;;30.58;30.33;99687.88;5059622;28;20027;-87
2022/06/24 10:48:43;;;;;;;7.13;1.58;;;;;;;30.52;30.87;99686.97;5072418;28;20056;-87
2022/06/24 10:51:17;;;;;;;7.18;1.52;;;;;;;30.51;30.65;99691.03;5056187;28;20033;-88
2022/06/24 10:54:01;;;;;;;3.92;1.35;;;;;;;30.79;30.36;99684.06;5052312;28;20520;-85
2022/06/24 10:56:49;;;;;;;11.50;1.77;;;;;;;30.82;30.36;99674.63;5062494;28;20493;-84
2022/06/24 10:59:19;;;;;;;6.20;1.50;;;;;;;30.81;30.45;99667.44;5073459;28;20123;-84
2022/06/24 11:01:50;;;;;;;3.88;1.35;;;;;;;30.46;30.77;99669.16;5073453;28;20021;-83
2022/06/24 11:04:31;;;;;;;3.15;1.58;;;;;;;30.05;31.31;99674.22;5072330;28;20060;-88
2022/06/24 11:07:15;;;;;;;4.47;2.25;;;;;;;30.19;30.80;99664.38;5073082;28;20493;-83
2022/06/24 11:09:41;;;;;;;7.75;1.90;;;;;;;30.43;30.63;99665.22;5053066;28;20174;-87
2022/06/24 11:12:30;;;;;;;9.98;2.45;;;;;;;30.30;30.32;99670.28;5053167;28;20483;-83
2022/06/24 11:14:56;;;;;;;8.80;1.88;;;;;;;30.55;30.59;99672.72;5053406;28;20032;-83
2022/06/24 11:17:25;;;;;;;5.68;1.70;;;;;;;30.55;30.01;99675.53;5051999;28;20033;-84
2022/06/24 11:19:52;;;;;;;4.82;1.30;;;;;;;30.51;29.95;99671.31;5051933;28;20020;-88
2022/06/24 11:22:18;;;;;;;4.43;1.42;;;;;;;30.28;29.97;99678.44;5052220;28;20039;-83
2022/06/24 11:24:49;;;;;;;7.18;2.63;;;;;;;29.87;30.10;99677.09;5053259;28;20028;-83
2022/06/24 11:27:15;;;;;;;9.13;2.30;;;;;;;29.66;30.57;99684.44;5052035;28;20033;-86
2022/06/24 11:29:51;;;;;;;7.32;1.60;;;;;;;29.93;30.35;99683.66;5051778;28;20025;-88
2022/06/24 11:32:17;;;;;;;7.38;2.15;;;;;;;29.92;30.39;99670.78;5052264;28;20120;-83
2022/06/24 11:34:45;;;;;;;7.07;1.85;;;;;;;29.90;29.98;99670.50;5053463;28;20056;-89
2022/06/24 11:37:12;;;;;;;5.32;2.10;;;;;;;30.15;29.79;99666.56;5051783;28;20475;-84
2022/06/24 11:39:37;;;;;;;5.43;1.98;;;;;;;29.91;30.04;99655.16;5052886;28;20108;-87